Aviation Digital Data Service (ADDS)

Output produced by METARs form (0925 UTC 07 December 2022)
found at http://www.aviationweather.gov/metar/data/
 
METAR text: WSSL 070900Z 00000KT 9999 VCSH FEW014 FEW017CB FEW018TCU BKN300 28/25 Q1005 RETS
Conditions at: WSSL (SINGAPORE/SELETA, SG) observed 0900 UTC 07 December 2022
Temperature: 28.0°C (82°F)
Dewpoint: 25.0°C (77°F) [RH = 84%]
Pressure (altimeter): 29.68 inches Hg (1005.0 mb)
Winds: calm
Visibility: 6 or more miles (10+ km)
Ceiling: 30000 feet AGL
Clouds: few clouds at 1400 feet AGL
few clouds at 1700 feet AGL
few clouds at 1800 feet AGL
broken clouds at 30000 feet AGL
Weather: VCSH  (showers in vicinity)

METAR text: WSSL 070830Z 10004KT 070V130 9999 VCTS FEW017CB FEW018TCU BKN300 28/25 Q1005
Conditions at: WSSL (SINGAPORE/SELETA, SG) observed 0830 UTC 07 December 2022
Temperature: 28.0°C (82°F)
Dewpoint: 25.0°C (77°F) [RH = 84%]
Pressure (altimeter): 29.68 inches Hg (1005.0 mb)
Winds: from the E (100 degrees) at 5 MPH (4 knots; 2.1 m/s)
Visibility: 6 or more miles (10+ km)
Ceiling: 30000 feet AGL
Clouds: few clouds at 1700 feet AGL
few clouds at 1800 feet AGL
broken clouds at 30000 feet AGL
Weather: VCTS  (thunderstorm in vicinity)

Forecast for: AMD
Text: TAF AMD WSSL 070800Z 0708/0812 33006KT 9999 FEW015 BKN020
Forecast period: 0800 UTC 07 December 2022 to 1200 UTC 08 December 2022
Forecast type: FROM: standard forecast or significant change
Winds: from the NNW (330 degrees) at 7 MPH (6 knots; 3.1 m/s)
Visibility: 6 or more miles (10+ km)
Ceiling: 2000 feet AGL
Clouds: few clouds at 1500 feet AGL
broken clouds at 2000 feet AGL
Weather: no significant weather forecast for this period
Text: TEMPO 0708/0710 3000 TSRA FEW012CB BKN015
Forecast period: 0800 to 1000 UTC 07 December 2022
Forecast type: TEMPORARY: The following changes expected for less than half the time period
Visibility: 1.86 miles (2.99 km)
Ceiling: 1500 feet AGL
Clouds: few clouds at 1200 feet AGL
broken clouds at 1500 feet AGL
Weather: TSRA  (rain associated with thunderstorm(s))
Text: TEMPO 0806/0810 3000 TSRA FEW012CB BKN015
Forecast period: 0600 to 1000 UTC 08 December 2022
Forecast type: TEMPORARY: The following changes expected for less than half the time period
Visibility: 1.86 miles (2.99 km)
Ceiling: 1500 feet AGL
Clouds: few clouds at 1200 feet AGL
broken clouds at 1500 feet AGL
Weather: TSRA  (rain associated with thunderstorm(s))